sensor_id;sensor_type;location;lat;lon;timestamp;pressure;altitude;pressure_sealevel;temperature;humidity
76285;BME280;71676;50.998;7.098;2024-03-07T00:01:38;101835.56;;;6.60;54.40
76285;BME280;71676;50.998;7.098;2024-03-07T00:04:05;101835.50;;;6.59;54.50
76285;BME280;71676;50.998;7.098;2024-03-07T00:06:32;101833.66;;;6.55;54.87
76285;BME280;71676;50.998;7.098;2024-03-07T00:08:59;101839.44;;;6.51;54.86
76285;BME280;71676;50.998;7.098;2024-03-07T00:11:26;101832.41;;;6.45;54.88
76285;BME280;71676;50.998;7.098;2024-03-07T00:13:53;101829.31;;;6.33;55.09
76285;BME280;71676;50.998;7.098;2024-03-07T00:16:21;101838.91;;;6.37;54.79
76285;BME280;71676;50.998;7.098;2024-03-07T00:18:48;101840.41;;;6.32;54.87
76285;BME280;71676;50.998;7.098;2024-03-07T00:21:15;101848.19;;;6.35;54.83
76285;BME280;71676;50.998;7.098;2024-03-07T00:23:41;101843.84;;;6.33;55.04
76285;BME280;71676;50.998;7.098;2024-03-07T00:26:09;101843.72;;;6.29;54.91
76285;BME280;71676;50.998;7.098;2024-03-07T00:28:35;101842.66;;;6.24;55.22
76285;BME280;71676;50.998;7.098;2024-03-07T00:31:04;101826.78;;;6.14;55.11
76285;BME280;71676;50.998;7.098;2024-03-07T00:33:33;101841.41;;;6.16;55.28
76285;BME280;71676;50.998;7.098;2024-03-07T00:36:00;101842.91;;;6.11;54.91
76285;BME280;71676;50.998;7.098;2024-03-07T00:38:27;101841.06;;;6.09;55.00
76285;BME280;71676;50.998;7.098;2024-03-07T00:40:53;101835.81;;;6.06;55.17
76285;BME280;71676;50.998;7.098;2024-03-07T00:43:20;101832.34;;;6.04;55.01
76285;BME280;71676;50.998;7.098;2024-03-07T00:45:47;101818.06;;;5.90;55.30
76285;BME280;71676;50.998;7.098;2024-03-07T00:48:15;101839.81;;;5.99;55.28
76285;BME280;71676;50.998;7.098;2024-03-07T00:50:43;101838.91;;;5.97;55.20
76285;BME280;71676;50.998;7.098;2024-03-07T00:53:10;101832.69;;;5.92;54.67
76285;BME280;71676;50.998;7.098;2024-03-07T00:55:36;101834.31;;;5.90;54.96
76285;BME280;71676;50.998;7.098;2024-03-07T00:58:03;101834.13;;;5.86;55.29
76285;BME280;71676;50.998;7.098;2024-03-07T01:00:30;101820.00;;;5.75;55.21
76285;BME280;71676;50.998;7.098;2024-03-07T01:02:57;101832.22;;;5.82;55.12
76285;BME280;71676;50.998;7.098;2024-03-07T01:05:23;101807.66;;;5.66;55.48
76285;BME280;71676;50.998;7.098;2024-03-07T01:07:51;101832.72;;;5.73;55.47
76285;BME280;71676;50.998;7.098;2024-03-07T01:10:18;101837.72;;;5.70;55.26
76285;BME280;71676;50.998;7.098;2024-03-07T01:12:45;101828.94;;;5.65;55.44
76285;BME280;71676;50.998;7.098;2024-03-07T01:15:15;101818.28;;;5.56;55.25
76285;BME280;71676;50.998;7.098;2024-03-07T01:17:41;101826.09;;;5.59;55.70
76285;BME280;71676;50.998;7.098;2024-03-07T01:20:10;101831.09;;;5.56;55.39
76285;BME280;71676;50.998;7.098;2024-03-07T01:22:37;101824.16;;;5.54;55.69
76285;BME280;71676;50.998;7.098;2024-03-07T01:25:06;101818.91;;;5.51;55.72
76285;BME280;71676;50.998;7.098;2024-03-07T01:27:32;101825.56;;;5.47;55.79
76285;BME280;71676;50.998;7.098;2024-03-07T01:29:59;101823.72;;;5.45;55.72
76285;BME280;71676;50.998;7.098;2024-03-07T01:32:26;101825.31;;;5.41;55.60
76285;BME280;71676;50.998;7.098;2024-03-07T01:34:53;101819.25;;;5.39;55.69
76285;BME280;71676;50.998;7.098;2024-03-07T01:37:20;101817.44;;;5.37;55.50
76285;BME280;71676;50.998;7.098;2024-03-07T01:39:47;101815.59;;;5.34;55.60
76285;BME280;71676;50.998;7.098;2024-03-07T01:42:15;101812.97;;;5.33;55.67
76285;BME280;71676;50.998;7.098;2024-03-07T01:44:41;101805.09;;;5.28;55.76
76285;BME280;71676;50.998;7.098;2024-03-07T01:47:09;101785.84;;;5.17;55.70
76285;BME280;71676;50.998;7.098;2024-03-07T01:49:37;101796.41;;;5.25;55.63
76285;BME280;71676;50.998;7.098;2024-03-07T01:52:05;101799.72;;;5.22;55.74
76285;BME280;71676;50.998;7.098;2024-03-07T01:54:32;101797.00;;;5.19;55.70
76285;BME280;71676;50.998;7.098;2024-03-07T01:57:00;101789.25;;;5.18;55.64
76285;BME280;71676;50.998;7.098;2024-03-07T01:59:30;101779.53;;;5.09;55.74
76285;BME280;71676;50.998;7.098;2024-03-07T02:01:57;101784.84;;;5.14;55.85
76285;BME280;71676;50.998;7.098;2024-03-07T02:04:24;101783.00;;;5.11;56.08
76285;BME280;71676;50.998;7.098;2024-03-07T02:06:51;101788.84;;;5.09;55.87
76285;BME280;71676;50.998;7.098;2024-03-07T02:09:19;101785.28;;;5.05;56.04
76285;BME280;71676;50.998;7.098;2024-03-07T02:11:47;101780.91;;;5.03;56.46
76285;BME280;71676;50.998;7.098;2024-03-07T02:14:13;101771.47;;;5.02;56.48
76285;BME280;71676;50.998;7.098;2024-03-07T02:16:42;101776.53;;;5.00;56.36
76285;BME280;71676;50.998;7.098;2024-03-07T02:19:10;101777.28;;;4.98;56.38
76285;BME280;71676;50.998;7.098;2024-03-07T02:21:39;101774.50;;;4.93;56.90
76285;BME280;71676;50.998;7.098;2024-03-07T02:24:06;101768.59;;;4.94;56.77
76285;BME280;71676;50.998;7.098;2024-03-07T02:26:34;101771.81;;;4.90;56.91
76285;BME280;71676;50.998;7.098;2024-03-07T02:29:00;101767.50;;;4.89;56.67
76285;BME280;71676;50.998;7.098;2024-03-07T02:31:28;101762.19;;;4.84;56.99
76285;BME280;71676;50.998;7.098;2024-03-07T02:34:00;101758.03;;;4.86;56.76
76285;BME280;71676;50.998;7.098;2024-03-07T02:36:27;101763.78;;;4.82;56.71
76285;BME280;71676;50.998;7.098;2024-03-07T02:38:55;101751.81;;;4.81;56.84
76285;BME280;71676;50.998;7.098;2024-03-07T02:41:21;101765.34;;;4.79;56.85
76285;BME280;71676;50.998;7.098;2024-03-07T02:43:49;101758.31;;;4.75;57.18
76285;BME280;71676;50.998;7.098;2024-03-07T02:46:16;101750.38;;;4.69;56.95
76285;BME280;71676;50.998;7.098;2024-03-07T02:48:43;101755.63;;;4.72;57.13
76285;BME280;71676;50.998;7.098;2024-03-07T02:51:10;101754.81;;;4.73;56.85
76285;BME280;71676;50.998;7.098;2024-03-07T02:53:37;101754.88;;;4.74;57.13
76285;BME280;71676;50.998;7.098;2024-03-07T02:56:05;101755.69;;;4.73;57.03
76285;BME280;71676;50.998;7.098;2024-03-07T02:58:33;101751.47;;;4.74;57.01
76285;BME280;71676;50.998;7.098;2024-03-07T03:01:00;101756.59;;;4.74;56.96
76285;BME280;71676;50.998;7.098;2024-03-07T03:03:28;101753.16;;;4.73;56.84
76285;BME280;71676;50.998;7.098;2024-03-07T03:05:56;101747.97;;;4.72;56.79
76285;BME280;71676;50.998;7.098;2024-03-07T03:08:23;101750.47;;;4.70;56.96
76285;BME280;71676;50.998;7.098;2024-03-07T03:10:50;101747.16;;;4.73;57.18
76285;BME280;71676;50.998;7.098;2024-03-07T03:13:18;101753.00;;;4.70;57.33
76285;BME280;71676;50.998;7.098;2024-03-07T03:15:45;101752.81;;;4.66;57.20
76285;BME280;71676;50.998;7.098;2024-03-07T03:18:12;101752.81;;;4.66;57.08
76285;BME280;71676;50.998;7.098;2024-03-07T03:20:39;101730.13;;;4.54;56.88
76285;BME280;71676;50.998;7.098;2024-03-07T03:23:06;101750.03;;;4.61;57.29
76285;BME280;71676;50.998;7.098;2024-03-07T03:25:36;101743.97;;;4.59;57.32
76285;BME280;71676;50.998;7.098;2024-03-07T03:28:04;101741.50;;;4.61;57.50
76285;BME280;71676;50.998;7.098;2024-03-07T03:30:33;101731.78;;;4.54;57.30
76285;BME280;71676;50.998;7.098;2024-03-07T03:32:59;101731.00;;;4.55;57.22
76285;BME280;71676;50.998;7.098;2024-03-07T03:35:26;101734.47;;;4.57;57.24
76285;BME280;71676;50.998;7.098;2024-03-07T03:37:53;101731.06;;;4.56;57.21
76285;BME280;71676;50.998;7.098;2024-03-07T03:40:20;101728.28;;;4.52;57.36
76285;BME280;71676;50.998;7.098;2024-03-07T03:42:47;101722.38;;;4.53;57.55
76285;BME280;71676;50.998;7.098;2024-03-07T03:45:14;101731.63;;;4.51;57.45
76285;BME280;71676;50.998;7.098;2024-03-07T03:47:43;101735.00;;;4.50;57.66
76285;BME280;71676;50.998;7.098;2024-03-07T03:50:11;101733.16;;;4.47;57.61
76285;BME280;71676;50.998;7.098;2024-03-07T03:52:38;101717.28;;;4.35;57.60
76285;BME280;71676;50.998;7.098;2024-03-07T03:55:05;101729.09;;;4.51;57.68
76285;BME280;71676;50.998;7.098;2024-03-07T03:57:33;101735.06;;;4.51;57.56
76285;BME280;71676;50.998;7.098;2024-03-07T03:59:59;101736.75;;;4.51;57.60
76285;BME280;71676;50.998;7.098;2024-03-07T04:02:29;101729.00;;;4.49;57.48
76285;BME280;71676;50.998;7.098;2024-03-07T04:04:57;101718.72;;;4.48;57.61
76285;BME280;71676;50.998;7.098;2024-03-07T04:07:25;101719.47;;;4.45;57.62
76285;BME280;71676;50.998;7.098;2024-03-07T04:09:51;101731.38;;;4.45;57.67
76285;BME280;71676;50.998;7.098;2024-03-07T04:12:19;101725.38;;;4.44;57.66
76285;BME280;71676;50.998;7.098;2024-03-07T04:14:46;101721.97;;;4.44;57.92
76285;BME280;71676;50.998;7.098;2024-03-07T04:17:13;101713.41;;;4.43;57.83
76285;BME280;71676;50.998;7.098;2024-03-07T04:19:40;101721.97;;;4.44;57.70
76285;BME280;71676;50.998;7.098;2024-03-07T04:22:08;101715.16;;;4.44;58.03
76285;BME280;71676;50.998;7.098;2024-03-07T04:24:35;101720.19;;;4.43;57.71
76285;BME280;71676;50.998;7.098;2024-03-07T04:27:02;101721.00;;;4.42;57.98
76285;BME280;71676;50.998;7.098;2024-03-07T04:29:30;101725.44;;;4.46;57.71
76285;BME280;71676;50.998;7.098;2024-03-07T04:31:57;101714.38;;;4.45;57.71
76285;BME280;71676;50.998;7.098;2024-03-07T04:34:23;101722.59;;;4.40;58.25
76285;BME280;71676;50.998;7.098;2024-03-07T04:36:50;101705.63;;;4.40;57.97
76285;BME280;71676;50.998;7.098;2024-03-07T04:39:18;101715.91;;;4.42;58.03
76285;BME280;71676;50.998;7.098;2024-03-07T04:41:54;101716.69;;;4.41;57.98
76285;BME280;71676;50.998;7.098;2024-03-07T04:44:21;101713.22;;;4.39;57.95
76285;BME280;71676;50.998;7.098;2024-03-07T04:46:48;101716.47;;;4.36;58.08
76285;BME280;71676;50.998;7.098;2024-03-07T04:49:16;101713.69;;;4.32;58.03
76285;BME280;71676;50.998;7.098;2024-03-07T04:51:42;101713.69;;;4.32;58.18
76285;BME280;71676;50.998;7.098;2024-03-07T04:54:09;101709.38;;;4.31;58.10
76285;BME280;71676;50.998;7.098;2024-03-07T04:56:37;101709.25;;;4.28;57.95
76285;BME280;71676;50.998;7.098;2024-03-07T04:59:04;101708.28;;;4.26;58.09
76285;BME280;71676;50.998;7.098;2024-03-07T05:01:32;101707.34;;;4.24;58.25
76285;BME280;71676;50.998;7.098;2024-03-07T05:03:58;101708.94;;;4.22;57.96
76285;BME280;71676;50.998;7.098;2024-03-07T05:06:26;101716.59;;;4.22;58.19
76285;BME280;71676;50.998;7.098;2024-03-07T05:08:54;101716.72;;;4.25;58.37
76285;BME280;71676;50.998;7.098;2024-03-07T05:11:21;101721.06;;;4.26;58.17
76285;BME280;71676;50.998;7.098;2024-03-07T05:13:49;101716.78;;;4.26;58.19
76285;BME280;71676;50.998;7.098;2024-03-07T05:16:16;101708.28;;;4.26;58.15
76285;BME280;71676;50.998;7.098;2024-03-07T05:18:42;101708.16;;;4.23;58.09
76285;BME280;71676;50.998;7.098;2024-03-07T05:21:09;101718.09;;;4.18;58.36
76285;BME280;71676;50.998;7.098;2024-03-07T05:23:49;101716.44;;;4.19;58.47
76285;BME280;71676;50.998;7.098;2024-03-07T05:26:17;101719.75;;;4.16;58.13
76285;BME280;71676;50.998;7.098;2024-03-07T05:28:43;101723.06;;;4.15;58.09
76285;BME280;71676;50.998;7.098;2024-03-07T05:31:11;101720.38;;;4.12;58.41
76285;BME280;71676;50.998;7.098;2024-03-07T05:33:38;101723.00;;;4.14;58.30
76285;BME280;71676;50.998;7.098;2024-03-07T05:36:06;101724.44;;;4.09;58.23
76285;BME280;71676;50.998;7.098;2024-03-07T05:38:40;101692.00;;;3.89;57.99
76285;BME280;71676;50.998;7.098;2024-03-07T05:41:08;101720.66;;;4.01;58.42
76285;BME280;71676;50.998;7.098;2024-03-07T05:43:36;101725.88;;;4.02;58.16
76285;BME280;71676;50.998;7.098;2024-03-07T05:46:03;101717.19;;;3.99;58.49
76285;BME280;71676;50.998;7.098;2024-03-07T05:48:33;101720.75;;;4.02;58.00
76285;BME280;71676;50.998;7.098;2024-03-07T05:51:00;101718.97;;;4.01;58.34
76285;BME280;71676;50.998;7.098;2024-03-07T05:53:26;101723.88;;;3.97;58.17
76285;BME280;71676;50.998;7.098;2024-03-07T05:55:54;101720.28;;;3.93;58.15
76285;BME280;71676;50.998;7.098;2024-03-07T05:58:21;101724.63;;;3.94;58.21
76285;BME280;71676;50.998;7.098;2024-03-07T06:00:47;101722.06;;;3.94;58.22
76285;BME280;71676;50.998;7.098;2024-03-07T06:03:16;101723.66;;;3.92;57.82
76285;BME280;71676;50.998;7.098;2024-03-07T06:05:44;101721.09;;;3.92;58.14
76285;BME280;71676;50.998;7.098;2024-03-07T06:08:14;101722.13;;;3.96;57.84
76285;BME280;71676;50.998;7.098;2024-03-07T06:10:41;101711.59;;;3.90;57.97
76285;BME280;71676;50.998;7.098;2024-03-07T06:13:08;101721.03;;;3.91;58.38
76285;BME280;71676;50.998;7.098;2024-03-07T06:15:36;101713.16;;;3.86;58.43
76285;BME280;71676;50.998;7.098;2024-03-07T06:18:04;101720.81;;;3.86;58.48
76285;BME280;71676;50.998;7.098;2024-03-07T06:20:30;101721.81;;;3.90;58.18
76285;BME280;71676;50.998;7.098;2024-03-07T06:22:58;101673.75;;;3.64;58.05
76285;BME280;71676;50.998;7.098;2024-03-07T06:25:28;101726.06;;;3.89;58.28
76285;BME280;71676;50.998;7.098;2024-03-07T06:28:03;101721.09;;;3.92;58.08
76285;BME280;71676;50.998;7.098;2024-03-07T06:30:35;101720.06;;;3.89;58.31
76285;BME280;71676;50.998;7.098;2024-03-07T06:33:02;101725.81;;;3.85;58.62
76285;BME280;71676;50.998;7.098;2024-03-07T06:35:29;101720.81;;;3.86;58.18
76285;BME280;71676;50.998;7.098;2024-03-07T06:37:56;101727.84;;;3.74;58.74
76285;BME280;71676;50.998;7.098;2024-03-07T06:40:24;101721.94;;;3.75;58.89
76285;BME280;71676;50.998;7.098;2024-03-07T06:42:51;101722.03;;;3.77;59.31
76285;BME280;71676;50.998;7.098;2024-03-07T06:45:18;101727.34;;;3.81;58.92
76285;BME280;71676;50.998;7.098;2024-03-07T06:47:44;101719.69;;;3.81;58.65
76285;BME280;71676;50.998;7.098;2024-03-07T06:50:12;101721.38;;;3.81;59.13
76285;BME280;71676;50.998;7.098;2024-03-07T06:52:41;101708.81;;;3.68;58.90
76285;BME280;71676;50.998;7.098;2024-03-07T06:55:08;101722.81;;;3.76;58.84
76285;BME280;71676;50.998;7.098;2024-03-07T06:57:36;101723.09;;;3.82;59.34
76285;BME280;71676;50.998;7.098;2024-03-07T07:00:03;101723.84;;;3.79;59.02
76285;BME280;71676;50.998;7.098;2024-03-07T07:02:37;101718.53;;;3.75;59.18
76285;BME280;71676;50.998;7.098;2024-03-07T07:05:05;101724.59;;;3.77;59.61
76285;BME280;71676;50.998;7.098;2024-03-07T07:07:36;101722.97;;;3.79;59.75
76285;BME280;71676;50.998;7.098;2024-03-07T07:10:04;101729.91;;;3.81;58.92
76285;BME280;71676;50.998;7.098;2024-03-07T07:12:32;101729.84;;;3.80;60.02
76285;BME280;71676;50.998;7.098;2024-03-07T07:15:01;101727.34;;;3.81;59.41
76285;BME280;71676;50.998;7.098;2024-03-07T07:17:28;101735.09;;;3.83;59.81
76285;BME280;71676;50.998;7.098;2024-03-07T07:19:55;101731.66;;;3.82;59.91
76285;BME280;71676;50.998;7.098;2024-03-07T07:22:24;101729.84;;;3.80;59.65
76285;BME280;71676;50.998;7.098;2024-03-07T07:24:51;101736.81;;;3.84;59.75
76285;BME280;71676;50.998;7.098;2024-03-07T07:27:18;101736.13;;;3.86;59.39
76285;BME280;71676;50.998;7.098;2024-03-07T07:29:44;101738.22;;;3.95;59.21
76285;BME280;71676;50.998;7.098;2024-03-07T07:32:12;101729.41;;;4.06;58.95
76285;BME280;71676;50.998;7.098;2024-03-07T07:34:39;101728.56;;;4.23;58.62
76285;BME280;71676;50.998;7.098;2024-03-07T07:37:08;101721.91;;;4.26;58.47
76285;BME280;71676;50.998;7.098;2024-03-07T07:39:35;101721.06;;;4.43;57.89
76285;BME280;71676;50.998;7.098;2024-03-07T07:42:02;101720.16;;;4.60;57.84
76285;BME280;71676;50.998;7.098;2024-03-07T07:44:28;101714.69;;;4.70;56.86
76285;BME280;71676;50.998;7.098;2024-03-07T07:46:58;101715.84;;;4.77;56.87
76285;BME280;71676;50.998;7.098;2024-03-07T07:49:26;101714.91;;;4.94;56.59
76285;BME280;71676;50.998;7.098;2024-03-07T07:51:53;101715.47;;;5.06;56.72
76285;BME280;71676;50.998;7.098;2024-03-07T07:54:20;101721.13;;;5.18;55.19
76285;BME280;71676;50.998;7.098;2024-03-07T07:56:47;101715.19;;;5.19;55.42
76285;BME280;71676;50.998;7.098;2024-03-07T07:59:14;101724.25;;;5.51;55.88
76285;BME280;71676;50.998;7.098;2024-03-07T08:01:40;101714.53;;;5.63;54.41
76285;BME280;71676;50.998;7.098;2024-03-07T08:04:07;101720.38;;;5.79;53.70
76285;BME280;71676;50.998;7.098;2024-03-07T08:06:36;101716.56;;;5.90;52.93
76285;BME280;71676;50.998;7.098;2024-03-07T08:09:03;101714.94;;;6.13;52.45
76285;BME280;71676;50.998;7.098;2024-03-07T08:11:32;101717.94;;;6.23;53.87
76285;BME280;71676;50.998;7.098;2024-03-07T08:13:59;101716.47;;;6.51;52.98
76285;BME280;71676;50.998;7.098;2024-03-07T08:16:26;101702.56;;;6.66;53.39
76285;BME280;71676;50.998;7.098;2024-03-07T08:18:52;101702.31;;;6.82;51.37
76285;BME280;71676;50.998;7.098;2024-03-07T08:21:21;101696.31;;;7.05;51.93
76285;BME280;71676;50.998;7.098;2024-03-07T08:23:50;101690.19;;;7.24;49.44
76285;BME280;71676;50.998;7.098;2024-03-07T08:26:17;101694.94;;;7.38;50.12
76285;BME280;71676;50.998;7.098;2024-03-07T08:28:43;101700.66;;;7.55;50.12
76285;BME280;71676;50.998;7.098;2024-03-07T08:31:10;101701.09;;;7.67;46.51
76285;BME280;71676;50.998;7.098;2024-03-07T08:33:37;101702.84;;;7.93;47.08
76285;BME280;71676;50.998;7.098;2024-03-07T08:36:05;101692.59;;;8.20;47.81
76285;BME280;71676;50.998;7.098;2024-03-07T08:38:35;101684.94;;;8.49;50.42
76285;BME280;71676;50.998;7.098;2024-03-07T08:41:04;101690.09;;;8.77;46.19
76285;BME280;71676;50.998;7.098;2024-03-07T08:43:31;101683.91;;;9.02;45.59
76285;BME280;71676;50.998;7.098;2024-03-07T08:45:57;101684.31;;;9.14;44.72
76285;BME280;71676;50.998;7.098;2024-03-07T08:48:24;101678.28;;;9.45;47.08
76285;BME280;71676;50.998;7.098;2024-03-07T08:50:51;101672.16;;;9.74;43.06
76285;BME280;71676;50.998;7.098;2024-03-07T08:53:18;101672.34;;;9.81;43.57
76285;BME280;71676;50.998;7.098;2024-03-07T08:55:44;101664.22;;;9.99;45.45
76285;BME280;71676;50.998;7.098;2024-03-07T08:58:12;101666.25;;;10.12;43.08
76285;BME280;71676;50.998;7.098;2024-03-07T09:00:39;101670.91;;;10.28;41.98
76285;BME280;71676;50.998;7.098;2024-03-07T09:03:05;101672.41;;;10.55;41.79
76285;BME280;71676;50.998;7.098;2024-03-07T09:05:35;101670.00;;;10.26;39.63
76285;BME280;71676;50.998;7.098;2024-03-07T09:08:02;101672.91;;;10.39;42.94
76285;BME280;71676;50.998;7.098;2024-03-07T09:10:28;101670.03;;;10.27;40.74
76285;BME280;71676;50.998;7.098;2024-03-07T09:12:55;101673.47;;;10.26;39.52
76285;BME280;71676;50.998;7.098;2024-03-07T09:15:24;101677.22;;;10.39;39.99
76285;BME280;71676;50.998;7.098;2024-03-07T09:17:51;101682.38;;;10.78;41.40
76285;BME280;71676;50.998;7.098;2024-03-07T09:20:18;101680.00;;;10.90;41.52
76285;BME280;71676;50.998;7.098;2024-03-07T09:22:45;101674.56;;;11.18;39.03
76285;BME280;71676;50.998;7.098;2024-03-07T09:25:14;101658.56;;;11.35;39.27
76285;BME280;71676;50.998;7.098;2024-03-07T09:27:44;101669.66;;;11.77;39.85
76285;BME280;71676;50.998;7.098;2024-03-07T09:30:11;101669.09;;;11.47;40.34
76285;BME280;71676;50.998;7.098;2024-03-07T09:32:41;101670.16;;;11.57;40.90
76285;BME280;71676;50.998;7.098;2024-03-07T09:35:09;101674.50;;;11.59;40.02
76285;BME280;71676;50.998;7.098;2024-03-07T09:37:38;101666.09;;;11.25;39.32
76285;BME280;71676;50.998;7.098;2024-03-07T09:40:07;101669.19;;;11.07;38.57
76285;BME280;71676;50.998;7.098;2024-03-07T09:42:34;101661.13;;;10.92;40.77
76285;BME280;71676;50.998;7.098;2024-03-07T09:45:04;101669.09;;;10.61;38.35
76285;BME280;71676;50.998;7.098;2024-03-07T09:47:32;101664.00;;;10.64;41.62
76285;BME280;71676;50.998;7.098;2024-03-07T09:50:01;101665.03;;;10.72;40.77
76285;BME280;71676;50.998;7.098;2024-03-07T09:52:29;101673.78;;;10.40;39.71
76285;BME280;71676;50.998;7.098;2024-03-07T09:54:56;101675.69;;;10.47;41.67
76285;BME280;71676;50.998;7.098;2024-03-07T09:57:24;101669.81;;;10.55;41.79
76285;BME280;71676;50.998;7.098;2024-03-07T09:59:54;101667.25;;;10.55;42.47
76285;BME280;71676;50.998;7.098;2024-03-07T10:02:21;101647.16;;;10.41;41.72
76285;BME280;71676;50.998;7.098;2024-03-07T10:04:51;101665.00;;;10.33;40.98
76285;BME280;71676;50.998;7.098;2024-03-07T10:07:21;101669.69;;;10.14;42.40
76285;BME280;71676;50.998;7.098;2024-03-07T10:09:48;101662.38;;;10.30;42.31
76285;BME280;71676;50.998;7.098;2024-03-07T10:12:17;101657.81;;;9.83;42.01
76285;BME280;71676;50.998;7.098;2024-03-07T10:14:56;101664.41;;;10.08;43.10
76285;BME280;71676;50.998;7.098;2024-03-07T10:17:23;101657.72;;;10.16;42.08
76285;BME280;71676;50.998;7.098;2024-03-07T10:19:51;101652.75;;;9.86;42.16
76285;BME280;71676;50.998;7.098;2024-03-07T10:22:21;101642.81;;;10.03;42.37
76285;BME280;71676;50.998;7.098;2024-03-07T10:24:51;101641.53;;;10.21;41.87
76285;BME280;71676;50.998;7.098;2024-03-07T10:27:19;101630.00;;;10.43;42.67
76285;BME280;71676;50.998;7.098;2024-03-07T10:29:46;101638.00;;;10.53;41.04
76285;BME280;71676;50.998;7.098;2024-03-07T10:32:13;101629.31;;;10.50;41.63
76285;BME280;71676;50.998;7.098;2024-03-07T10:34:40;101623.94;;;10.81;42.04
76285;BME280;71676;50.998;7.098;2024-03-07T10:37:11;101622.56;;;10.98;41.40
76285;BME280;71676;50.998;7.098;2024-03-07T10:39:43;101621.47;;;11.32;40.79
76285;BME280;71676;50.998;7.098;2024-03-07T10:42:13;101596.31;;;11.22;41.04
76285;BME280;71676;50.998;7.098;2024-03-07T10:44:43;101623.91;;;11.24;39.69
76285;BME280;71676;50.998;7.098;2024-03-07T10:47:16;101618.13;;;11.37;40.69
76285;BME280;71676;50.998;7.098;2024-03-07T10:49:52;101614.16;;;11.54;39.86
76285;BME280;71676;50.998;7.098;2024-03-07T10:52:26;101610.84;;;11.17;38.51
76285;BME280;71676;50.998;7.098;2024-03-07T10:55:03;101610.53;;;11.00;39.82
76285;BME280;71676;50.998;7.098;2024-03-07T10:57:41;101592.38;;;10.96;41.71
76285;BME280;71676;50.998;7.098;2024-03-07T11:00:11;101612.66;;;11.21;40.89
76285;BME280;71676;50.998;7.098;2024-03-07T11:02:56;101608.38;;;11.23;40.42
76285;BME280;71676;50.998;7.098;2024-03-07T11:05:25;101600.31;;;11.03;41.24
76285;BME280;71676;50.998;7.098;2024-03-07T11:07:56;101603.59;;;10.96;40.71
76285;BME280;71676;50.998;7.098;2024-03-07T11:10:25;101605.75;;;10.75;40.98
76285;BME280;71676;50.998;7.098;2024-03-07T11:12:53;101603.28;;;10.81;40.85
76285;BME280;71676;50.998;7.098;2024-03-07T11:15:21;101590.09;;;10.66;41.71
76285;BME280;71676;50.998;7.098;2024-03-07T11:17:52;101583.06;;;11.02;41.28
76285;BME280;71676;50.998;7.098;2024-03-07T11:20:20;101546.63;;;10.86;41.10
76285;BME280;71676;50.998;7.098;2024-03-07T11:22:48;101579.50;;;10.97;40.81
76285;BME280;71676;50.998;7.098;2024-03-07T11:25:18;101581.44;;;11.07;39.92
76285;BME280;71676;50.998;7.098;2024-03-07T11:27:52;101566.53;;;11.42;39.78
76285;BME280;71676;50.998;7.098;2024-03-07T11:30:21;101573.75;;;11.59;39.18
76285;BME280;71676;50.998;7.098;2024-03-07T11:32:48;101561.13;;;11.77;39.92
76285;BME280;71676;50.998;7.098;2024-03-07T11:35:18;101544.03;;;11.88;38.31
76285;BME280;71676;50.998;7.098;2024-03-07T11:37:56;101552.22;;;12.19;39.42
76285;BME280;71676;50.998;7.098;2024-03-07T11:40:44;101543.84;;;12.36;39.55
76285;BME280;71676;50.998;7.098;2024-03-07T11:43:13;101548.16;;;12.37;38.61
76285;BME280;71676;50.998;7.098;2024-03-07T11:45:40;101541.78;;;12.11;38.37
76285;BME280;71676;50.998;7.098;2024-03-07T11:48:11;101542.91;;;12.30;37.35
76285;BME280;71676;50.998;7.098;2024-03-07T11:50:39;101536.34;;;11.93;38.12
76285;BME280;71676;50.998;7.098;2024-03-07T11:53:07;101540.38;;;11.19;38.26
76285;BME280;71676;50.998;7.098;2024-03-07T11:55:34;101531.25;;;11.42;38.85
76285;BME280;71676;50.998;7.098;2024-03-07T11:58:07;101523.91;;;11.65;38.95
76285;BME280;71676;50.998;7.098;2024-03-07T12:00:40;101512.91;;;11.78;38.24
76285;BME280;71676;50.998;7.098;2024-03-07T12:03:08;101506.13;;;11.86;37.13
76285;BME280;71676;50.998;7.098;2024-03-07T12:05:39;101512.38;;;11.45;37.47
76285;BME280;71676;50.998;7.098;2024-03-07T12:08:06;101518.53;;;11.51;38.69
76285;BME280;71676;50.998;7.098;2024-03-07T12:10:35;101505.34;;;11.36;38.33
76285;BME280;71676;50.998;7.098;2024-03-07T12:13:05;101511.13;;;11.22;37.04
76285;BME280;71676;50.998;7.098;2024-03-07T12:15:32;101509.81;;;11.46;37.39
76285;BME280;71676;50.998;7.098;2024-03-07T12:18:02;101511.63;;;11.00;38.08
76285;BME280;71676;50.998;7.098;2024-03-07T12:20:35;101505.16;;;10.77;38.56
76285;BME280;71676;50.998;7.098;2024-03-07T12:23:03;101505.34;;;10.86;39.04
76285;BME280;71676;50.998;7.098;2024-03-07T12:25:34;101503.38;;;10.71;39.02
76285;BME280;71676;50.998;7.098;2024-03-07T12:28:05;101490.66;;;10.83;39.08
76285;BME280;71676;50.998;7.098;2024-03-07T12:30:47;101501.66;;;10.73;38.71
76285;BME280;71676;50.998;7.098;2024-03-07T12:33:18;101489.63;;;10.72;38.34
76285;BME280;71676;50.998;7.098;2024-03-07T12:35:46;101488.59;;;10.64;39.33
76285;BME280;71676;50.998;7.098;2024-03-07T12:38:13;101467.91;;;10.61;39.09
76285;BME280;71676;50.998;7.098;2024-03-07T12:40:42;101483.41;;;10.61;39.72
76285;BME280;71676;50.998;7.098;2024-03-07T12:43:16;101482.97;;;10.38;40.00
76285;BME280;71676;50.998;7.098;2024-03-07T12:45:47;101476.06;;;10.36;40.48
76285;BME280;71676;50.998;7.098;2024-03-07T12:48:14;101475.50;;;10.52;40.45
76285;BME280;71676;50.998;7.098;2024-03-07T12:50:45;101437.50;;;10.43;40.03
76285;BME280;71676;50.998;7.098;2024-03-07T12:53:12;101464.56;;;10.67;40.08
76285;BME280;71676;50.998;7.098;2024-03-07T12:55:39;101469.78;;;10.68;39.93
76285;BME280;71676;50.998;7.098;2024-03-07T12:58:08;101467.28;;;10.73;40.81
76285;BME280;71676;50.998;7.098;2024-03-07T13:00:37;101423.44;;;10.74;39.98
76285;BME280;71676;50.998;7.098;2024-03-07T13:03:04;101441.72;;;10.88;40.75